Time;durP1;ratioP1;P1;durP2;ratioP2;P2;SDS_P1;SDS_P2;PMS_P1;PMS_P2;Temp;Humidity;BMP_temperature;BMP_pressure;BME280_temperature;BME280_humidity;BME280_pressure;Samples;Min_cycle;Max_cycle;Signal;HPM_P1;HPM_P2
2023/04/19 00:01:24;;;;;;;;;;;11.30;99.90;;;;;;5057308;28;19919;-88
2023/04/19 00:03:51;;;;;;;;;;;11.30;99.90;;;;;;5056803;28;19913;-88
2023/04/19 00:06:19;;;;;;;;;;;11.20;99.90;;;;;;5057590;28;19925;-89
2023/04/19 00:08:55;;;;;;;;;;;12.40;99.90;;;;;;5056722;28;19919;-89
2023/04/19 00:11:22;;;;;;;;;;;11.10;99.90;;;;;;5056750;28;19949;-88
2023/04/19 00:13:49;;;;;;;;;;;11.10;99.90;;;;;;5060817;28;19988;-89
2023/04/19 00:16:34;;;;;;;;;;;11.00;99.90;;;;;;5059988;28;19925;-89
2023/04/19 00:19:01;;;;;;;;;;;11.00;99.90;;;;;;5077959;28;19927;-89
2023/04/19 00:21:30;;;;;;;;;;;11.00;99.90;;;;;;5079795;28;19944;-89
2023/04/19 00:23:56;;;;;;;;;;;11.00;99.90;;;;;;5079060;28;19924;-89
2023/04/19 00:26:23;;;;;;;;;;;11.00;99.90;;;;;;5068459;28;19980;-89
2023/04/19 00:28:52;;;;;;;;;;;11.00;99.90;;;;;;5063366;28;20334;-86
2023/04/19 00:31:18;;;;;;;;;;;11.10;99.90;;;;;;5038314;28;19925;-86
2023/04/19 00:33:45;;;;;;;;;;;11.10;99.90;;;;;;5034497;28;19929;-87
2023/04/19 00:36:12;;;;;;;;;;;11.10;99.90;;;;;;5042596;28;19937;-86
2023/04/19 00:38:40;;;;;;;;;;;11.10;99.90;;;;;;5054161;28;19925;-86
2023/04/19 00:41:07;;;;;;;;;;;11.20;99.90;;;;;;5052603;28;19924;-86
2023/04/19 00:43:35;;;;;;;;;;;11.10;99.90;;;;;;5055798;28;19928;-86
2023/04/19 00:46:02;;;;;;;;;;;11.10;99.90;;;;;;5069263;28;19966;-88
2023/04/19 00:48:29;;;;;;;;;;;11.10;99.90;;;;;;5080809;28;19924;-87
2023/04/19 00:50:56;;;;;;;;;;;12.20;99.90;;;;;;5085076;28;20382;-87
2023/04/19 00:53:23;;;;;;;;;;;12.20;99.90;;;;;;5096757;28;19925;-90
2023/04/19 00:55:53;;;;;;;;;;;11.20;99.90;;;;;;5092440;28;20300;-87
2023/04/19 00:58:20;;;;;;;;;;;11.20;99.90;;;;;;5088472;28;19928;-88
2023/04/19 01:00:47;;;;;;;;;;;11.20;99.90;;;;;;5098653;28;19947;-89
2023/04/19 01:03:15;;;;;;;;;;;12.10;99.90;;;;;;5098187;28;19935;-86
2023/04/19 01:05:42;;;;;;;;;;;11.20;99.90;;;;;;5083668;28;19939;-87
2023/04/19 01:08:12;;;;;;;;;;;11.30;99.90;;;;;;5077844;28;20282;-86
2023/04/19 01:10:40;;;;;;;;;;;11.30;99.90;;;;;;5078000;28;19935;-87
2023/04/19 01:13:09;;;;;;;;;;;11.20;99.90;;;;;;5089975;28;19929;-87
2023/04/19 01:15:37;;;;;;;;;;;11.30;99.90;;;;;;5058276;28;19989;-88
2023/04/19 01:18:05;;;;;;;;;;;11.30;99.90;;;;;;5056268;28;19929;-88
2023/04/19 01:20:32;;;;;;;;;;;11.30;99.90;;;;;;5055124;28;19928;-87
2023/04/19 01:23:00;;;;;;;;;;;11.30;99.90;;;;;;5054611;28;19929;-88
2023/04/19 01:25:27;;;;;;;;;;;11.30;99.90;;;;;;5053939;28;19935;-87
2023/04/19 01:27:54;;;;;;;;;;;11.40;99.90;;;;;;5072783;28;20027;-88
2023/04/19 01:30:23;;;;;;;;;;;11.40;99.90;;;;;;5063545;28;20397;-88
2023/04/19 01:32:50;;;;;;;;;;;11.40;99.90;;;;;;5054740;28;20310;-88
2023/04/19 01:35:17;;;;;;;;;;;11.40;99.90;;;;;;5072380;28;20387;-88
2023/04/19 01:37:45;;;;;;;;;;;11.40;99.90;;;;;;5054279;28;19924;-88
2023/04/19 01:40:14;;;;;;;;;;;11.40;99.90;;;;;;5050470;28;19925;-88
2023/04/19 01:42:42;;;;;;;;;;;11.50;99.90;;;;;;5052488;28;19935;-88
2023/04/19 01:45:09;;;;;;;;;;;11.50;99.90;;;;;;5042076;28;20381;-88
2023/04/19 01:47:36;;;;;;;;;;;11.50;99.90;;;;;;5060043;28;20254;-89
2023/04/19 01:50:02;;;;;;;;;;;11.50;99.90;;;;;;5048639;28;19928;-89
2023/04/19 01:52:29;;;;;;;;;;;11.50;99.90;;;;;;5054605;28;19928;-88
2023/04/19 01:54:56;;;;;;;;;;;11.50;99.90;;;;;;5051123;28;19932;-89
2023/04/19 01:57:24;;;;;;;;;;;11.50;99.90;;;;;;5034665;28;19928;-88
2023/04/19 01:59:51;;;;;;;;;;;11.50;99.90;;;;;;5071142;28;20592;-88
2023/04/19 02:02:18;;;;;;;;;;;11.50;99.90;;;;;;5053545;28;19924;-88
2023/04/19 02:04:45;;;;;;;;;;;11.50;99.90;;;;;;5053216;28;20029;-89
2023/04/19 02:07:13;;;;;;;;;;;11.50;99.90;;;;;;5062991;28;19976;-87
2023/04/19 02:09:39;;;;;;;;;;;11.50;99.90;;;;;;5075357;28;19929;-87
2023/04/19 02:12:06;;;;;;;;;;;11.50;99.90;;;;;;5053687;28;19974;-87
2023/04/19 02:14:35;;;;;;;;;;;11.50;99.90;;;;;;5053512;28;20011;-88
2023/04/19 02:17:01;;;;;;;;;;;11.50;99.90;;;;;;5053772;28;20424;-88
2023/04/19 02:19:28;;;;;;;;;;;11.40;99.90;;;;;;5053756;28;19935;-87
2023/04/19 02:21:56;;;;;;;;;;;11.30;99.90;;;;;;5054349;28;19925;-89
2023/04/19 02:24:23;;;;;;;;;;;11.20;99.90;;;;;;5071286;28;19966;-87
2023/04/19 02:26:50;;;;;;;;;;;11.00;99.90;;;;;;5067363;28;19929;-87
2023/04/19 02:29:16;;;;;;;;;;;10.90;99.90;;;;;;5041453;28;20327;-87
2023/04/19 02:31:45;;;;;;;;;;;10.70;99.90;;;;;;5045428;28;19928;-89
2023/04/19 02:34:12;;;;;;;;;;;10.60;99.90;;;;;;5055494;28;20003;-88
2023/04/19 02:36:41;;;;;;;;;;;10.50;99.90;;;;;;5074408;28;19950;-88
2023/04/19 02:39:09;;;;;;;;;;;10.40;99.90;;;;;;5056357;28;19976;-88
2023/04/19 02:41:38;;;;;;;;;;;10.40;99.90;;;;;;5053970;28;20377;-88
2023/04/19 02:44:05;;;;;;;;;;;10.30;99.90;;;;;;5052653;28;19925;-86
2023/04/19 02:46:31;;;;;;;;;;;10.20;99.90;;;;;;5042378;28;19936;-86
2023/04/19 02:49:01;;;;;;;;;;;10.20;99.90;;;;;;5033923;28;20402;-86
2023/04/19 02:51:28;;;;;;;;;;;10.10;99.90;;;;;;5050855;28;20008;-87
2023/04/19 02:53:55;;;;;;;;;;;10.10;99.90;;;;;;5051634;28;20019;-87
2023/04/19 02:56:21;;;;;;;;;;;10.00;99.90;;;;;;5041457;28;19925;-88
2023/04/19 02:58:48;;;;;;;;;;;10.00;99.90;;;;;;5040292;28;19968;-87
2023/04/19 03:01:16;;;;;;;;;;;9.90;99.90;;;;;;5033871;28;20406;-87
2023/04/19 03:03:42;;;;;;;;;;;9.90;99.90;;;;;;5051338;28;19939;-89
2023/04/19 03:06:11;;;;;;;;;;;9.90;99.90;;;;;;5053497;28;20366;-87
2023/04/19 03:08:38;;;;;;;;;;;9.90;99.90;;;;;;5053280;28;19955;-87
2023/04/19 03:11:06;;;;;;;;;;;9.90;99.90;;;;;;5054637;28;20352;-87
2023/04/19 03:13:33;;;;;;;;;;;9.90;99.90;;;;;;5053114;28;19931;-88
2023/04/19 03:16:00;;;;;;;;;;;9.90;99.90;;;;;;5053801;28;19998;-89
2023/04/19 03:18:28;;;;;;;;;;;9.90;99.90;;;;;;5073218;28;19932;-88
2023/04/19 03:20:57;;;;;;;;;;;9.90;99.90;;;;;;5072235;28;19928;-87
2023/04/19 03:23:26;;;;;;;;;;;10.00;99.90;;;;;;5052111;28;19928;-87
2023/04/19 03:25:54;;;;;;;;;;;9.90;99.90;;;;;;5053034;28;20470;-87
2023/04/19 03:28:51;;;;;;;;;;;9.90;99.90;;;;;;5052719;28;20085;-87
2023/04/19 03:31:24;;;;;;;;;;;10.00;99.90;;;;;;5035316;28;19936;-87
2023/04/19 03:33:53;;;;;;;;;;;10.10;99.90;;;;;;5045428;28;20346;-88
2023/04/19 03:36:24;;;;;;;;;;;10.20;99.90;;;;;;5052837;28;19959;-88
2023/04/19 03:38:52;;;;;;;;;;;10.30;99.90;;;;;;5052121;28;19928;-88
2023/04/19 03:41:23;;;;;;;;;;;10.30;99.90;;;;;;5064991;28;19934;-89
2023/04/19 03:44:03;;;;;;;;;;;10.40;99.90;;;;;;5072718;28;19925;-88
2023/04/19 03:46:30;;;;;;;;;;;10.50;99.90;;;;;;5072176;28;20027;-87
2023/04/19 03:48:58;;;;;;;;;;;10.50;99.90;;;;;;5073668;28;19924;-87
2023/04/19 03:51:26;;;;;;;;;;;10.60;99.90;;;;;;5069915;28;20013;-90
2023/04/19 03:53:54;;;;;;;;;;;10.70;99.90;;;;;;5077709;28;19929;-88
2023/04/19 03:56:22;;;;;;;;;;;10.70;99.90;;;;;;5073922;28;20003;-87
2023/04/19 03:58:50;;;;;;;;;;;10.80;99.90;;;;;;5073174;28;19932;-88
2023/04/19 04:01:18;;;;;;;;;;;10.80;99.90;;;;;;5054419;28;19963;-89
2023/04/19 04:03:45;;;;;;;;;;;10.80;99.90;;;;;;5053183;28;19924;-89
2023/04/19 04:06:12;;;;;;;;;;;10.90;99.90;;;;;;5054698;28;19925;-90
2023/04/19 04:08:39;;;;;;;;;;;10.80;99.90;;;;;;5068901;28;19920;-88
2023/04/19 04:11:07;;;;;;;;;;;10.90;99.90;;;;;;5067486;28;19947;-87
2023/04/19 04:13:34;;;;;;;;;;;10.80;99.90;;;;;;5073026;28;19912;-90
2023/04/19 04:16:23;;;;;;;;;;;10.90;99.90;;;;;;5077601;28;19913;-91
2023/04/19 04:18:52;;;;;;;;;;;10.90;99.90;;;;;;5076403;28;19913;-90
2023/04/19 04:21:20;;;;;;;;;;;10.90;99.90;;;;;;5076645;28;19921;-90
2023/04/19 04:23:48;;;;;;;;;;;10.90;99.90;;;;;;5076864;28;19932;-91
2023/04/19 04:26:29;;;;;;;;;;;10.90;99.90;;;;;;5078216;28;19934;-89
2023/04/19 04:29:14;;;;;;;;;;;10.90;99.90;;;;;;5078215;28;19980;-88
2023/04/19 04:31:42;;;;;;;;;;;10.90;99.90;;;;;;5078400;28;19909;-91
2023/04/19 04:34:10;;;;;;;;;;;10.90;99.90;;;;;;5077483;28;19912;-89
2023/04/19 04:36:44;;;;;;;;;;;10.90;99.90;;;;;;5077996;28;19912;-91
2023/04/19 04:39:15;;;;;;;;;;;10.90;99.90;;;;;;5071310;28;19924;-90
2023/04/19 04:41:45;;;;;;;;;;;10.80;99.90;;;;;;5058764;28;19988;-90
2023/04/19 04:44:11;;;;;;;;;;;10.70;99.90;;;;;;5071763;22;19969;-74
2023/04/19 04:46:38;;;;;;;;;;;10.60;99.90;;;;;;5055429;28;20043;-74
2023/04/19 04:49:06;;;;;;;;;;;10.50;99.90;;;;;;5051406;28;19940;-74
2023/04/19 04:51:34;;;;;;;;;;;10.40;99.90;;;;;;5065722;28;19987;-74
2023/04/19 04:54:00;;;;;;;;;;;10.40;99.90;;;;;;5049079;28;20377;-74
2023/04/19 04:56:27;;;;;;;;;;;10.30;99.90;;;;;;5046451;28;20435;-75
2023/04/19 04:58:56;;;;;;;;;;;10.30;99.90;;;;;;5053537;28;19951;-75
2023/04/19 05:01:28;;;;;;;;;;;10.20;99.90;;;;;;5054354;28;19929;-75
2023/04/19 05:03:55;;;;;;;;;;;10.20;99.90;;;;;;5056551;28;19929;-75
2023/04/19 05:06:22;;;;;;;;;;;10.20;99.90;;;;;;5054789;28;20000;-74
2023/04/19 05:08:49;;;;;;;;;;;10.20;99.90;;;;;;5054176;28;19929;-75
2023/04/19 05:11:22;;;;;;;;;;;10.10;99.90;;;;;;5066059;28;19978;-74
2023/04/19 05:13:48;;;;;;;;;;;10.20;99.90;;;;;;5050577;28;20026;-75
2023/04/19 05:16:19;;;;;;;;;;;10.20;99.90;;;;;;5057435;28;20027;-75
2023/04/19 05:18:47;;;;;;;;;;;10.10;99.90;;;;;;5069314;28;19929;-75
2023/04/19 05:21:14;;;;;;;;;;;10.20;99.90;;;;;;5061618;28;19939;-75
2023/04/19 05:23:42;;;;;;;;;;;10.20;99.90;;;;;;5057794;28;20499;-74
2023/04/19 05:26:11;;;;;;;;;;;10.20;99.90;;;;;;5056187;28;19960;-75
2023/04/19 05:28:38;;;;;;;;;;;10.40;99.90;;;;;;5055660;28;19998;-74
2023/04/19 05:31:10;;;;;;;;;;;10.50;99.90;;;;;;5050198;28;20237;-75
2023/04/19 05:33:46;;;;;;;;;;;9.80;99.90;;;;;;5052986;28;19978;-76
2023/04/19 05:36:14;;;;;;;;;;;10.60;99.90;;;;;;5067414;28;19969;-75
2023/04/19 05:38:40;;;;;;;;;;;10.90;99.90;;;;;;5064607;28;19936;-75
2023/04/19 05:41:07;;;;;;;;;;;11.70;99.90;;;;;;5052781;28;19931;-75
2023/04/19 05:43:34;;;;;;;;;;;12.00;99.90;;;;;;5050434;28;19932;-75
2023/04/19 05:46:02;;;;;;;;;;;13.10;99.90;;;;;;5067839;28;19928;-76
2023/04/19 05:48:29;;;;;;;;;;;13.70;99.90;;;;;;5051407;28;19987;-76
2023/04/19 05:51:26;;;;;;;;;;;14.40;99.90;;;;;;5049638;28;19924;-75
2023/04/19 05:54:01;;;;;;;;;;;15.40;99.90;;;;;;5051812;28;19936;-75
2023/04/19 05:56:28;;;;;;;;;;;16.30;99.90;;;;;;5041852;28;19932;-76
2023/04/19 05:58:55;;;;;;;;;;;16.30;99.90;;;;;;5049085;28;20349;-76
2023/04/19 06:01:22;;;;;;;;;;;16.50;99.90;;;;;;5045924;28;19929;-76
2023/04/19 06:03:51;;;;;;;;;;;17.00;99.90;;;;;;5049580;28;19975;-76
2023/04/19 06:06:18;;;;;;;;;;;17.60;99.90;;;;;;5052396;28;20294;-75
2023/04/19 06:08:46;;;;;;;;;;;17.80;99.90;;;;;;5051118;28;19933;-76
2023/04/19 06:11:13;;;;;;;;;;;18.00;99.90;;;;;;5051595;28;20263;-76
2023/04/19 06:13:42;;;;;;;;;;;18.20;99.90;;;;;;5049699;28;19925;-77
2023/04/19 06:16:09;;;;;;;;;;;18.20;99.90;;;;;;5069035;28;19976;-75
2023/04/19 06:18:35;;;;;;;;;;;18.40;99.90;;;;;;5069339;28;19942;-76
2023/04/19 06:21:02;;;;;;;;;;;18.80;99.90;;;;;;5070251;28;20000;-76
2023/04/19 06:23:29;;;;;;;;;;;19.20;99.90;;;;;;5052780;28;20358;-76
2023/04/19 06:25:57;;;;;;;;;;;19.40;99.90;;;;;;5053697;28;19973;-74
2023/04/19 06:28:24;;;;;;;;;;;19.60;99.90;;;;;;5054170;28;19992;-75
2023/04/19 06:30:51;;;;;;;;;;;18.80;99.90;;;;;;5046187;28;19926;-76
2023/04/19 06:33:18;;;;;;;;;;;18.00;99.90;;;;;;5054827;28;19929;-75
2023/04/19 06:35:44;;;;;;;;;;;17.10;99.90;;;;;;5054324;28;19924;-75
2023/04/19 06:38:11;;;;;;;;;;;16.20;99.90;;;;;;5055304;28;19976;-74
2023/04/19 06:40:38;;;;;;;;;;;15.80;99.90;;;;;;5053848;28;19929;-76
2023/04/19 06:43:06;;;;;;;;;;;15.90;99.90;;;;;;5053432;28;19931;-76
2023/04/19 06:45:32;;;;;;;;;;;15.90;99.90;;;;;;5060963;28;19939;-75
2023/04/19 06:47:59;;;;;;;;;;;15.30;99.90;;;;;;5063040;28;19931;-76
2023/04/19 06:50:27;;;;;;;;;;;14.50;99.90;;;;;;5070497;28;19929;-76
2023/04/19 06:52:54;;;;;;;;;;;13.80;99.90;;;;;;5069932;28;19935;-76
2023/04/19 06:55:21;;;;;;;;;;;13.40;99.90;;;;;;5070776;28;19932;-74
2023/04/19 06:57:47;;;;;;;;;;;12.60;99.90;;;;;;5073246;28;19929;-75
2023/04/19 07:00:16;;;;;;;;;;;13.00;99.90;;;;;;5071184;28;19924;-75
2023/04/19 07:02:43;;;;;;;;;;;13.30;99.90;;;;;;5070416;28;19935;-75
2023/04/19 07:05:11;;;;;;;;;;;13.50;99.90;;;;;;5070090;28;19947;-76
2023/04/19 07:07:40;;;;;;;;;;;14.30;99.90;;;;;;5070185;28;20002;-75
2023/04/19 07:10:07;;;;;;;;;;;15.80;99.90;;;;;;5068981;28;19928;-76
2023/04/19 07:12:34;;;;;;;9.27;4.17;;;17.10;99.90;;;;;;5068014;28;20065;-75
2023/04/19 07:15:03;;;;;;;6.47;4.60;;;19.10;99.90;;;;;;5068218;28;20288;-75
2023/04/19 07:17:31;;;;;;;12.07;5.10;;;20.90;99.90;;;;;;5068863;28;20309;-76
2023/04/19 07:19:58;;;;;;;9.40;4.47;;;21.90;99.90;;;;;;5051838;28;20212;-76
2023/04/19 07:22:25;;;;;;;6.93;4.13;;;22.90;99.20;;;;;;5070769;28;20234;-76
2023/04/19 07:24:52;;;;;;;5.70;4.10;;;23.10;98.50;;;;;;5068883;28;20207;-76
2023/04/19 07:27:19;;;;;;;6.13;4.40;;;23.50;97.60;;;;;;5050283;28;20234;-76
2023/04/19 07:29:46;;;;;;;6.60;3.90;;;23.80;93.70;;;;;;5073139;28;20245;-75
2023/04/19 07:32:14;;;;;;;6.27;4.17;;;23.80;90.70;;;;;;5068914;28;20210;-75
2023/04/19 07:34:42;;;;;;;17.37;6.00;;;23.30;91.10;;;;;;5070007;28;20211;-75
2023/04/19 07:37:09;;;;;;;6.87;4.50;;;23.10;90.20;;;;;;5066854;28;20228;-75
2023/04/19 07:39:36;;;;;;;8.20;4.33;;;23.10;88.10;;;;;;5067613;28;20228;-75
2023/04/19 07:42:03;;;;;;;13.13;4.60;;;22.80;86.90;;;;;;5066981;28;20230;-75
2023/04/19 07:44:30;;;;;;;6.30;4.10;;;22.30;85.00;;;;;;5068844;28;20210;-76
2023/04/19 07:46:57;;;;;;;5.57;4.37;;;21.90;85.20;;;;;;5062154;28;20571;-76
2023/04/19 07:49:24;;;;;;;11.80;4.83;;;21.70;85.90;;;;;;5062550;28;20206;-76
2023/04/19 07:51:52;;;;;;;5.13;3.97;;;21.80;88.20;;;;;;5067291;28;20202;-76
2023/04/19 07:54:20;;;;;;;7.33;4.50;;;21.90;87.20;;;;;;5067588;28;20208;-76
2023/04/19 07:56:47;;;;;;;4.60;4.07;;;21.80;85.80;;;;;;5071800;28;20235;-75
2023/04/19 07:59:13;;;;;;;5.63;4.03;;;21.50;82.30;;;;;;5048930;28;20230;-76
2023/04/19 08:01:41;;;;;;;4.60;3.90;;;21.70;85.50;;;;;;5062901;28;20735;-75
2023/04/19 08:04:08;;;;;;;5.57;4.10;;;21.90;82.60;;;;;;5063808;28;20225;-76
2023/04/19 08:06:38;;;;;;;4.57;3.40;;;22.10;84.40;;;;;;5059336;28;20225;-76
2023/04/19 08:09:06;;;;;;;5.33;3.97;;;22.60;82.70;;;;;;5062457;28;20215;-75
2023/04/19 08:11:33;;;;;;;5.90;4.17;;;22.60;83.50;;;;;;5058804;28;20199;-75
2023/04/19 08:14:00;;;;;;;6.37;3.87;;;22.60;81.20;;;;;;5066414;28;20215;-75
2023/04/19 08:16:28;;;;;;;7.23;4.27;;;22.40;79.90;;;;;;5065968;28;20591;-75
2023/04/19 08:18:55;;;;;;;5.03;4.10;;;22.20;77.00;;;;;;5044515;28;20211;-75
2023/04/19 08:21:22;;;;;;;5.30;4.00;;;21.80;78.20;;;;;;5047074;28;20617;-75
2023/04/19 08:23:49;;;;;;;6.23;4.17;;;21.40;80.20;;;;;;5066416;28;20218;-75
2023/04/19 08:26:17;;;;;;;5.70;3.90;;;21.60;79.60;;;;;;5047472;28;20436;-75
2023/04/19 08:28:44;;;;;;;4.80;3.77;;;21.70;80.90;;;;;;5065426;28;20234;-75
2023/04/19 08:31:11;;;;;;;8.40;3.80;;;21.50;76.30;;;;;;5065918;28;20210;-75
2023/04/19 08:33:38;;;;;;;5.00;3.70;;;21.20;76.50;;;;;;5065572;28;20215;-75
2023/04/19 08:36:06;;;;;;;6.60;3.93;;;20.80;76.20;;;;;;5051902;28;20987;-74
2023/04/19 08:38:33;;;;;;;4.83;3.10;;;20.40;75.10;;;;;;5069756;28;20232;-75
2023/04/19 08:41:01;;;;;;;4.33;3.33;;;20.20;74.70;;;;;;5070228;28;20233;-75
2023/04/19 08:43:32;;;;;;;5.33;3.30;;;19.70;76.20;;;;;;5053319;28;20224;-74
2023/04/19 08:45:59;;;;;;;4.37;3.63;;;19.40;75.70;;;;;;5049570;28;20224;-75
2023/04/19 08:48:27;;;;;;;6.03;3.73;;;19.00;76.60;;;;;;5071978;28;20369;-75
2023/04/19 08:50:57;;;;;;;6.17;3.30;;;19.10;77.80;;;;;;5072387;28;20217;-75
2023/04/19 08:53:28;;;;;;;9.77;3.43;;;19.20;77.40;;;;;;5070161;28;20220;-75
2023/04/19 08:55:57;;;;;;;6.13;3.37;;;18.80;76.80;;;;;;5069368;28;20211;-75
2023/04/19 08:58:24;;;;;;;8.27;3.47;;;18.70;77.80;;;;;;5070841;28;20225;-75
2023/04/19 09:00:53;;;;;;;5.10;3.40;;;18.50;77.20;;;;;;5070296;28;20221;-75
2023/04/19 09:03:20;;;;;;;3.43;2.53;;;18.50;78.90;;;;;;5070722;28;20101;-75
2023/04/19 09:05:46;;;;;;;6.77;3.30;;;18.40;77.60;;;;;;5069077;28;20278;-75
2023/04/19 09:08:25;;;;;;;4.30;3.07;;;18.30;76.30;;;;;;5051193;28;20739;-74
2023/04/19 09:10:56;;;;;;;5.47;2.67;;;17.80;77.10;;;;;;5070149;28;20272;-75
2023/04/19 09:13:23;;;;;;;2.60;2.40;;;17.60;78.60;;;;;;5068494;28;20222;-75
2023/04/19 09:15:52;;;;;;;4.83;2.43;;;17.30;77.00;;;;;;5069183;28;20223;-75
2023/04/19 09:18:19;;;;;;;6.37;3.00;;;17.00;78.00;;;;;;5051061;28;20262;-75
2023/04/19 09:20:47;;;;;;;2.73;2.50;;;16.70;79.60;;;;;;5067499;28;20210;-75
2023/04/19 09:23:16;;;;;;;5.87;2.27;;;16.70;79.20;;;;;;5069486;28;20312;-75
2023/04/19 09:25:53;;;;;;;5.17;2.70;;;16.60;78.90;;;;;;5068239;28;20320;-75
2023/04/19 09:28:20;;;;;;;7.37;2.90;;;16.40;78.80;;;;;;5068066;28;20232;-75
2023/04/19 09:30:47;;;;;;;;;;;16.30;79.90;;;;;;5070018;28;20056;-75
2023/04/19 09:33:22;;;;;;;;;;;16.30;78.40;;;;;;5063314;28;20327;-75
2023/04/19 09:35:49;;;;;;;;;;;16.10;78.50;;;;;;5068722;28;19935;-75
2023/04/19 09:38:16;;;;;;;;;;;15.90;78.50;;;;;;5104450;22;19920;-84
2023/04/19 09:40:46;;;;;;;;;;;15.70;77.50;;;;;;5119641;28;19963;-84
2023/04/19 09:43:13;;;;;;;;;;;15.30;77.50;;;;;;5122469;28;19924;-84
2023/04/19 09:45:41;;;;;;;;;;;14.90;77.30;;;;;;5118426;28;19920;-83
2023/04/19 09:48:09;;;;;;;;;;;14.50;77.40;;;;;;5124236;28;20289;-82
2023/04/19 09:50:51;;;;;;;;;;;14.20;77.60;;;;;;5119434;28;19938;-84
2023/04/19 09:53:18;;;;;;;;;;;14.00;77.20;;;;;;5110723;28;19930;-84
2023/04/19 09:55:46;;;;;;;;;;;13.90;76.10;;;;;;5105910;28;19924;-83
2023/04/19 09:58:13;;;;;;;;;;;13.80;75.50;;;;;;5112534;28;19924;-83
2023/04/19 10:00:40;;;;;;;;;;;14.30;77.30;;;;;;5120265;28;20575;-84
2023/04/19 10:03:09;;;;;;;;;;;13.80;75.90;;;;;;5122025;28;19934;-83
2023/04/19 10:05:39;;;;;;;;;;;13.80;75.80;;;;;;5116570;28;19923;-84
2023/04/19 10:08:07;;;;;;;;;;;13.80;74.20;;;;;;5124852;28;19919;-83
2023/04/19 10:10:34;;;;;;;;;;;13.80;74.50;;;;;;5123694;27;19930;-83
2023/04/19 10:13:02;;;;;;;;;;;13.80;74.80;;;;;;5121393;28;19920;-85
2023/04/19 10:15:31;;;;;;;;;;;14.00;74.50;;;;;;5113665;28;20340;-83
2023/04/19 10:17:59;;;;;;;;;;;14.10;75.50;;;;;;5116713;28;19949;-85
2023/04/19 10:20:29;;;;;;;;;;;14.20;73.50;;;;;;5119132;28;20253;-83
2023/04/19 10:22:57;;;;;;;;;;;14.20;73.60;;;;;;5118418;28;19935;-83
2023/04/19 10:25:28;;;;;;;;;;;14.20;73.20;;;;;;5111599;28;19919;-83
2023/04/19 10:27:55;;;;;;;;;;;14.10;73.90;;;;;;5117511;28;19930;-82
2023/04/19 10:30:23;;;;;;;;;;;14.10;74.40;;;;;;5111943;28;19939;-81
2023/04/19 10:32:52;;;;;;;;;;;14.20;74.80;;;;;;5117468;28;19924;-82
2023/04/19 10:35:20;;;;;;;;;;;14.10;75.30;;;;;;5119668;28;19928;-80
2023/04/19 10:38:05;;;;;;;;;;;14.20;75.70;;;;;;5119987;28;19920;-78
2023/04/19 10:40:52;;;;;;;;;;;14.50;76.60;;;;;;5119071;27;19930;-81
2023/04/19 10:43:19;;;;;;;;;;;14.40;74.60;;;;;;5117708;28;19927;-81
2023/04/19 10:45:46;;;;;;;;;;;14.40;75.40;;;;;;5117062;28;19923;-81
2023/04/19 10:48:33;;;;;;;;;;;14.50;76.70;;;;;;5122926;28;20139;-81
2023/04/19 10:51:01;;;;;;;;;;;14.60;76.90;;;;;;5129890;28;20329;-81
2023/04/19 10:53:45;;;;;;;;;;;14.60;77.60;;;;;;5129550;28;20118;-80
2023/04/19 10:56:12;;;;;;;;;;;14.80;78.80;;;;;;5123466;28;20105;-81
2023/04/19 10:58:58;;;;;;;;;;;15.00;78.70;;;;;;5135500;27;19981;-81
2023/04/19 11:01:36;;;;;;;;;;;15.00;77.40;;;;;;5116845;28;19924;-82
2023/04/19 11:04:04;;;;;;;;;;;14.80;77.10;;;;;;5118445;28;19930;-82
2023/04/19 11:06:31;;;;;;;;;;;14.60;76.40;;;;;;5113264;28;19955;-82
2023/04/19 11:08:59;;;;;;;;;;;14.70;77.50;;;;;;5116258;27;19933;-83
2023/04/19 11:11:26;;;;;;;;;;;14.80;77.10;;;;;;5117283;28;19930;-82
2023/04/19 11:13:54;;;;;;;;;;;14.80;76.00;;;;;;5112804;27;19930;-82
2023/04/19 11:16:21;;;;;;;;;;;14.50;76.20;;;;;;5109209;28;19924;-79
2023/04/19 11:18:47;;;;;;;;;;;15.00;76.80;;;;;;5117770;28;20021;-80
2023/04/19 11:21:15;;;;;;;;;;;15.10;78.10;;;;;;5126459;28;19962;-80
2023/04/19 11:23:41;;;;;;;;;;;15.10;77.40;;;;;;5120271;28;19908;-80
2023/04/19 11:26:11;;;;;;;;;;;15.10;77.00;;;;;;5116249;28;19923;-81
2023/04/19 11:28:38;;;;;;;;;;;15.10;77.10;;;;;;5111828;28;19952;-81
2023/04/19 11:31:06;;;;;;;;;;;15.10;77.20;;;;;;5128437;27;20463;-81
2023/04/19 11:33:33;;;;;;;;;;;15.20;76.10;;;;;;5117412;27;19931;-81
2023/04/19 11:36:00;;;;;;;;;;;15.20;76.20;;;;;;5110166;28;19924;-80
2023/04/19 11:38:27;;;;;;;;;;;15.10;75.40;;;;;;5119704;28;19934;-81
2023/04/19 11:40:58;;;;;;;;;;;15.10;74.40;;;;;;5124597;28;19930;-81
2023/04/19 11:43:31;;;;;;;;;;;15.10;76.30;;;;;;5118014;28;19923;-82
2023/04/19 11:46:04;;;;;;;;;;;15.20;77.40;;;;;;5132146;27;19927;-81
2023/04/19 11:48:31;;;;;;;;;;;15.30;77.20;;;;;;5115752;28;19996;-82
2023/04/19 11:50:58;;;;;;;;;;;15.40;76.80;;;;;;5115286;28;19920;-81
2023/04/19 11:53:27;;;;;;;;;;;15.50;76.50;;;;;;5115996;28;19931;-81
2023/04/19 11:55:56;;;;;;;;;;;15.60;75.80;;;;;;5115490;28;20071;-82
2023/04/19 11:58:24;;;;;;;;;;;15.60;76.20;;;;;;5114663;28;20007;-81
2023/04/19 12:00:52;;;;;;;;;;;15.50;73.80;;;;;;5111503;28;19928;-82
2023/04/19 12:03:21;;;;;;;;;;;14.90;72.60;;;;;;5119982;28;20029;-81
2023/04/19 12:05:52;;;;;;;;;;;15.50;75.20;;;;;;5113389;28;19923;-81
2023/04/19 12:08:29;;;;;;;;;;;15.60;74.40;;;;;;5108004;28;19923;-80
2023/04/19 12:10:56;;;;;;;;;;;15.80;73.60;;;;;;5103985;28;19930;-81
2023/04/19 12:13:24;;;;;;;;;;;15.90;72.40;;;;;;5101913;28;19935;-81
2023/04/19 12:15:53;;;;;;;;;;;15.80;72.70;;;;;;5125730;28;19946;-82
2023/04/19 12:18:19;;;;;;;;;;;15.90;72.40;;;;;;5132383;28;19964;-81
2023/04/19 12:20:47;;;;;;;;;;;16.00;72.20;;;;;;5128228;28;19923;-80
2023/04/19 12:23:15;;;;;;;;;;;16.10;72.80;;;;;;5124764;28;19920;-82
2023/04/19 12:25:42;;;;;;;;;;;16.30;71.30;;;;;;5117334;28;19930;-80
2023/04/19 12:31:02;;;;;;;;;;;16.40;70.90;;;;;;5057549;28;19978;-80
2023/04/19 12:33:29;;;;;;;;;;;16.20;68.90;;;;;;5049901;28;19920;-80
2023/04/19 12:35:55;;;;;;;;;;;15.90;69.00;;;;;;5049003;28;19976;-80
2023/04/19 12:38:22;;;;;;;;;;;15.70;69.50;;;;;;5046499;28;19924;-80
2023/04/19 12:40:49;;;;;;;;;;;15.80;70.10;;;;;;5042353;28;19928;-80
2023/04/19 12:43:16;;;;;;;;;;;15.80;70.90;;;;;;5035793;28;20152;-81
2023/04/19 12:45:42;;;;;;;;;;;15.80;69.80;;;;;;5034355;28;19921;-80
2023/04/19 12:48:10;;;;;;;;;;;15.80;70.10;;;;;;5034260;28;19930;-80
2023/04/19 12:50:37;;;;;;;;;;;15.80;69.30;;;;;;5034388;28;19924;-80
2023/04/19 12:53:05;;;;;;;;;;;15.90;68.50;;;;;;5034767;28;19932;-81
2023/04/19 12:55:32;;;;;;;;;;;15.90;69.20;;;;;;5036685;28;19928;-80
2023/04/19 12:57:59;;;;;;;;;;;16.10;69.00;;;;;;5032540;28;19988;-80
2023/04/19 13:00:26;;;;;;;;;;;16.20;67.90;;;;;;5033252;28;19952;-80
2023/04/19 13:02:52;;;;;;;;;;;16.30;68.10;;;;;;5016176;28;20309;-81
2023/04/19 13:05:20;;;;;;;;;;;16.40;69.20;;;;;;5036331;28;19940;-80
2023/04/19 13:07:47;;;;;;;;;;;16.50;69.20;;;;;;5032067;28;20174;-79
2023/04/19 13:10:14;;;;;;;;;;;16.50;68.50;;;;;;5033655;28;19929;-80
2023/04/19 13:12:41;;;;;;;;;;;16.50;68.90;;;;;;5035006;28;20019;-79
2023/04/19 13:15:08;;;;;;;;;;;16.60;68.50;;;;;;5031356;28;20095;-79
2023/04/19 13:17:36;;;;;;;;;;;16.70;68.10;;;;;;5033408;28;19921;-80
2023/04/19 13:20:05;;;;;;;;;;;16.50;68.00;;;;;;5032232;28;19925;-80
2023/04/19 13:22:33;;;;;;;;;;;16.40;67.80;;;;;;5033969;28;19925;-79
2023/04/19 13:25:00;;;;;;;;;;;16.40;68.00;;;;;;5034051;28;19925;-79
2023/04/19 13:27:27;;;;;;;;;;;16.40;68.40;;;;;;5034728;28;19972;-80
2023/04/19 13:29:54;;;;;;;;;;;16.50;68.70;;;;;;5036688;28;19986;-80
2023/04/19 13:32:21;;;;;;;;;;;16.50;67.50;;;;;;5044689;28;19935;-80
2023/04/19 13:34:48;;;;;;;;;;;16.40;68.20;;;;;;5044995;28;19929;-79
2023/04/19 13:37:15;;;;;;;;;;;16.60;68.90;;;;;;5043994;28;19947;-80
2023/04/19 13:39:43;;;;;;;;;;;15.90;69.20;;;;;;5035138;28;19979;-79
2023/04/19 13:42:10;;;;;;;;;;;15.60;69.80;;;;;;5033017;28;19995;-79
2023/04/19 13:44:36;;;;;;;;;;;15.80;71.00;;;;;;5033759;28;19928;-79
2023/04/19 13:47:03;;;;;;;;;;;15.90;71.10;;;;;;5032536;28;20337;-79
2023/04/19 13:49:30;;;;;;;;;;;16.00;69.40;;;;;;5031813;28;20370;-79
2023/04/19 13:51:57;;;;;;;;;;;16.10;69.70;;;;;;5030905;28;19929;-79
2023/04/19 13:54:24;;;;;;;;;;;16.30;69.30;;;;;;5028999;28;19921;-79
2023/04/19 13:56:53;;;;;;;;;;;16.30;69.40;;;;;;5029645;28;20542;-79
2023/04/19 13:59:19;;;;;;;;;;;16.40;68.20;;;;;;5509753;22;20337;-79
2023/04/19 14:01:46;;;;;;;;;;;16.60;67.80;;;;;;5110300;28;19923;-79
2023/04/19 14:04:13;;;;;;;;;;;16.10;67.50;;;;;;5112476;27;19935;-78
2023/04/19 14:06:40;;;;;;;;;;;16.20;69.00;;;;;;5111142;28;19973;-79
2023/04/19 14:09:06;;;;;;;;;;;16.40;68.00;;;;;;5092147;28;19924;-79
2023/04/19 14:11:33;;;;;;;;;;;16.40;66.80;;;;;;5091123;28;20004;-79